Terminal Aerodrome Forecast
Issued by NWS El Paso, TX

Home | Current Version | Previous Version | Text Only | Print | Product List | Glossary On
Versions: 1 2 3 4 5 6 7 8 9 10 11 12 13 14
000
FTUS44 KEPZ 252300
TAFELP
TAF
KELP 252325Z 2600/2624 24016G27KT P6SM SCT120 SCT200
      TEMPO 2600/2602 25020G30KT
     FM260200 25012G23KT P6SM SCT070
     FM261200 25011G17KT P6SM VCSH FEW025 BKN040 OVC060
     FM261400 25010KT P6SM -SHRA BKN025 OVC060
     FM261800 28012G20KT P6SM VCSH SCT040 BKN060=

USA.gov is the U.S. government's official web portal to all federal, state and local government web resources and services.